createdAt,value
2022-08-26T00:01:13.782Z,96252.74
2022-08-26T00:03:43.263Z,96252.07
2022-08-26T00:06:12.090Z,96255.41
2022-08-26T00:08:43.675Z,96253.59
2022-08-26T00:11:26.250Z,96258.15
2022-08-26T00:13:58.252Z,96260.04
2022-08-26T00:16:29.767Z,96251.55
2022-08-26T00:19:00.295Z,96252.65
2022-08-26T00:21:29.516Z,96251.64
2022-08-26T00:23:59.622Z,96248.10
2022-08-26T00:26:29.280Z,96249.25
2022-08-26T00:28:58.793Z,96247.20
2022-08-26T00:31:31.206Z,96246.19
2022-08-26T00:34:00.788Z,96250.14
2022-08-26T00:36:29.577Z,96248.59
2022-08-26T00:38:59.410Z,96249.30
2022-08-26T00:41:29.176Z,96245.08
2022-08-26T00:43:58.405Z,96247.94
2022-08-26T00:46:37.352Z,96252.02
2022-08-26T00:49:17.042Z,96243.90
2022-08-26T00:51:53.504Z,96243.42
2022-08-26T00:54:26.970Z,96243.27
2022-08-26T00:57:01.273Z,96240.32
2022-08-26T00:59:32.977Z,96245.60
2022-08-26T01:02:03.374Z,96241.13
2022-08-26T01:04:37.312Z,96242.78
2022-08-26T01:07:07.682Z,96240.52
2022-08-26T01:09:39.377Z,96242.27
2022-08-26T01:12:09.224Z,96239.45
2022-08-26T01:14:41.373Z,96244.23
2022-08-26T01:17:16.928Z,96241.98
2022-08-26T01:19:58.693Z,96241.30
2022-08-26T01:22:52.316Z,96241.76
2022-08-26T01:25:23.156Z,96247.09
2022-08-26T01:27:58.141Z,96246.88
2022-08-26T01:30:31.616Z,96250.37
2022-08-26T01:33:09.799Z,96247.37
2022-08-26T01:35:40.062Z,96246.45
2022-08-26T01:38:11.503Z,96246.16
2022-08-26T01:40:44.200Z,96244.73
2022-08-26T01:43:21.636Z,96247.76
2022-08-26T01:45:55.352Z,96247.52
2022-08-26T01:48:29.201Z,96248.92
2022-08-26T01:51:00.510Z,96243.66
2022-08-26T01:53:30.849Z,96244.72
2022-08-26T01:56:03.478Z,96241.23
2022-08-26T01:58:52.945Z,96246.73
2022-08-26T02:01:29.124Z,96242.16
2022-08-26T02:04:09.172Z,96244.04
2022-08-26T02:06:40.508Z,96245.45
2022-08-26T02:09:12.057Z,96246.78
2022-08-26T02:11:42.419Z,96243.54
2022-08-26T02:14:21.663Z,96245.75
2022-08-26T02:16:54.192Z,96242.06
2022-08-26T02:19:28.153Z,96241.45
2022-08-26T02:22:05.162Z,96243.63
2022-08-26T02:25:08.686Z,96245.11
2022-08-26T02:27:37.936Z,96245.52
2022-08-26T02:30:11.032Z,96245.37
2022-08-26T02:32:42.403Z,96247.91
2022-08-26T02:35:20.006Z,96247.52
2022-08-26T02:37:51.073Z,96246.36
2022-08-26T02:40:25.608Z,96245.29
2022-08-26T02:42:57.096Z,96245.06
2022-08-26T02:45:29.408Z,96247.30
2022-08-26T02:48:01.160Z,96246.97
2022-08-26T02:50:31.193Z,96248.06
2022-08-26T02:53:00.696Z,96248.35
2022-08-26T02:55:30.538Z,96246.55
2022-08-26T02:58:00.325Z,96247.13
2022-08-26T03:00:30.631Z,96247.39
2022-08-26T03:03:00.718Z,96250.39
2022-08-26T03:05:29.987Z,96249.29
2022-08-26T03:07:59.660Z,96252.72
2022-08-26T03:10:32.592Z,96247.67
2022-08-26T03:13:05.095Z,96247.80
2022-08-26T03:15:35.242Z,96249.45
2022-08-26T03:18:05.273Z,96246.47
2022-08-26T03:20:34.832Z,96247.32
2022-08-26T03:23:04.502Z,96250.58
2022-08-26T03:25:34.328Z,96253.13
2022-08-26T03:28:05.037Z,96251.23
2022-08-26T03:30:45.314Z,96255.92
2022-08-26T03:33:16.055Z,96255.50
2022-08-26T03:35:50.493Z,96257.91
2022-08-26T03:38:23.294Z,96258.99
2022-08-26T03:40:53.438Z,96257.27
2022-08-26T03:43:27.398Z,96256.92
2022-08-26T03:45:56.192Z,96256.36
2022-08-26T03:48:27.850Z,96253.60
2022-08-26T03:50:58.285Z,96250.99
2022-08-26T03:53:28.839Z,96250.52
2022-08-26T03:55:59.258Z,96251.02
2022-08-26T03:58:29.012Z,96252.89
2022-08-26T04:00:59.881Z,96246.30
2022-08-26T04:03:49.498Z,96251.31
2022-08-26T04:06:18.677Z,96252.86
2022-08-26T04:08:48.590Z,96257.04
2022-08-26T04:11:22.711Z,96260.05
2022-08-26T04:13:52.811Z,96258.46
2022-08-26T04:16:22.326Z,96261.83
2022-08-26T04:18:51.760Z,96260.36
2022-08-26T04:21:22.502Z,96258.04
2022-08-26T04:23:53.365Z,96256.27
2022-08-26T04:26:23.441Z,96254.06
2022-08-26T04:28:55.244Z,96255.05
2022-08-26T04:31:26.681Z,96251.02
2022-08-26T04:34:02.189Z,96250.76
2022-08-26T04:36:31.881Z,96248.05
2022-08-26T04:39:03.171Z,96246.20
2022-08-26T04:41:34.056Z,96251.48
2022-08-26T04:44:03.905Z,96253.83
2022-08-26T04:46:33.822Z,96258.73
2022-08-26T04:49:06.458Z,96251.78
2022-08-26T04:51:38.132Z,96252.42
2022-08-26T04:54:14.339Z,96255.48
2022-08-26T04:56:49.801Z,96253.30
2022-08-26T04:59:19.592Z,96256.21
2022-08-26T05:01:52.364Z,96256.72
2022-08-26T05:04:22.428Z,96255.98
2022-08-26T05:06:51.961Z,96258.20
2022-08-26T05:09:26.552Z,96258.30
2022-08-26T05:11:56.616Z,96254.67
2022-08-26T05:14:26.803Z,96254.93
2022-08-26T05:16:56.565Z,96255.59
2022-08-26T05:19:28.039Z,96257.52
2022-08-26T05:21:58.532Z,96257.94
2022-08-26T05:24:28.085Z,96258.27
2022-08-26T05:26:57.809Z,96255.77
2022-08-26T05:29:30.441Z,96256.97
2022-08-26T05:32:02.513Z,96256.02
2022-08-26T05:34:32.697Z,96255.61
2022-08-26T05:37:01.287Z,96252.94
2022-08-26T05:39:33.388Z,96251.86
2022-08-26T05:42:06.059Z,96247.85
2022-08-26T05:44:54.028Z,96251.77
2022-08-26T05:47:26.982Z,96248.23
2022-08-26T05:49:57.172Z,96250.66
2022-08-26T05:52:27.628Z,96244.58
2022-08-26T05:54:56.923Z,96242.07
2022-08-26T05:57:30.237Z,96239.41
2022-08-26T06:00:00.646Z,96239.98
2022-08-26T06:02:31.402Z,96238.70
2022-08-26T06:05:01.238Z,96240.46
2022-08-26T06:07:51.416Z,96237.73
2022-08-26T06:10:31.948Z,96234.47
2022-08-26T06:13:11.905Z,96230.27
2022-08-26T06:15:43.809Z,96228.90
2022-08-26T06:18:21.540Z,96229.82
2022-08-26T06:20:57.396Z,96227.89
2022-08-26T06:23:50.230Z,96231.52
2022-08-26T06:26:20.921Z,96227.18
2022-08-26T06:28:51.269Z,96229.55
2022-08-26T06:31:23.434Z,96223.23
2022-08-26T06:33:53.945Z,96225.52
2022-08-26T06:36:27.024Z,96222.38
2022-08-26T06:39:00.328Z,96225.36
2022-08-26T06:41:31.999Z,96222.37
2022-08-26T06:44:03.365Z,96223.09
2022-08-26T06:46:34.259Z,96222.02
2022-08-26T06:49:07.065Z,96220.73
2022-08-26T06:51:39.444Z,96222.64
2022-08-26T06:54:11.725Z,96221.23
2022-08-26T06:56:43.424Z,96216.58
2022-08-26T06:59:12.995Z,96220.17
2022-08-26T07:01:48.487Z,96218.93
2022-08-26T07:04:21.997Z,96220.39
2022-08-26T07:06:54.617Z,96218.52
2022-08-26T07:09:28.737Z,96215.83
2022-08-26T07:11:58.015Z,96209.52
2022-08-26T07:14:28.214Z,96207.92
2022-08-26T07:16:59.418Z,96207.52
2022-08-26T07:19:30.955Z,96203.12
2022-08-26T07:22:05.579Z,96201.05
2022-08-26T07:24:39.348Z,96197.51
2022-08-26T07:27:14.148Z,96193.23
2022-08-26T07:29:45.262Z,96190.81
2022-08-26T07:32:16.143Z,96188.95
2022-08-26T07:34:46.210Z,96196.04
2022-08-26T07:37:15.852Z,96192.65
2022-08-26T07:39:48.088Z,96189.30
2022-08-26T07:42:20.058Z,96181.33
2022-08-26T07:44:50.854Z,96181.37
2022-08-26T07:47:25.557Z,96180.30
2022-08-26T07:49:59.006Z,96182.46
2022-08-26T07:52:30.892Z,96178.96
2022-08-26T07:55:02.344Z,96177.39
2022-08-26T07:57:33.122Z,96174.55
2022-08-26T08:00:09.164Z,96170.77
2022-08-26T08:02:45.131Z,96169.20
2022-08-26T08:05:20.308Z,96167.57
2022-08-26T08:07:53.530Z,96164.86
2022-08-26T08:10:45.054Z,96164.74
2022-08-26T08:13:19.730Z,96160.91
2022-08-26T08:15:50.440Z,96158.00
2022-08-26T08:18:20.497Z,96157.95
2022-08-26T08:20:59.417Z,96161.39
2022-08-26T08:23:36.159Z,96160.16
2022-08-26T08:26:08.937Z,96160.34
2022-08-26T08:28:39.450Z,96154.52
2022-08-26T08:31:45.000Z,96150.34
2022-08-26T08:34:14.198Z,96155.71
2022-08-26T08:36:43.881Z,96148.34
2022-08-26T08:39:14.024Z,96145.95
2022-08-26T08:42:16.488Z,96142.82
2022-08-26T08:44:51.910Z,96141.64
2022-08-26T08:47:43.422Z,96137.24
2022-08-26T08:50:25.715Z,96134.94
2022-08-26T08:53:02.078Z,96129.42
2022-08-26T08:55:45.413Z,96131.21
2022-08-26T08:58:22.566Z,96129.23
2022-08-26T09:01:06.020Z,96128.39
2022-08-26T09:04:02.141Z,96126.86
2022-08-26T09:06:31.989Z,96125.39
2022-08-26T09:09:04.183Z,96122.07
2022-08-26T09:11:36.812Z,96118.36
2022-08-26T09:14:12.809Z,96117.72
2022-08-26T09:17:01.587Z,96115.58
2022-08-26T09:19:41.873Z,96104.48
2022-08-26T09:22:30.451Z,96104.98
2022-08-26T09:25:00.800Z,96098.05
2022-08-26T09:27:51.239Z,96095.64
2022-08-26T09:30:33.626Z,96097.46
2022-08-26T09:33:10.990Z,96096.84
2022-08-26T09:35:47.513Z,96086.20
2022-08-26T09:38:29.769Z,96089.48
2022-08-26T09:41:05.882Z,96085.20
2022-08-26T09:43:36.936Z,96079.64
2022-08-26T09:46:29.267Z,96086.41
2022-08-26T09:49:23.824Z,96084.29
2022-08-26T09:52:07.506Z,96081.48
2022-08-26T09:54:39.014Z,96083.83
2022-08-26T09:57:20.171Z,96084.41
2022-08-26T09:59:54.193Z,96082.41
2022-08-26T10:02:39.941Z,96080.13
2022-08-26T10:05:18.627Z,96074.30
2022-08-26T10:07:51.752Z,96073.85
2022-08-26T10:10:31.349Z,96077.16
2022-08-26T10:13:03.778Z,96075.08
2022-08-26T10:15:49.998Z,96072.02
2022-08-26T10:18:34.777Z,96069.13
2022-08-26T10:21:33.192Z,96073.56
2022-08-26T10:24:04.922Z,96066.92
2022-08-26T10:26:57.936Z,96066.13
2022-08-26T10:29:39.124Z,96062.80
2022-08-26T10:32:32.492Z,96061.33
2022-08-26T10:35:07.043Z,96057.11
2022-08-26T10:37:46.406Z,96060.39
2022-08-26T10:40:39.019Z,96057.41
2022-08-26T10:43:21.253Z,96059.30
2022-08-26T10:45:58.410Z,96052.70
2022-08-26T10:49:06.689Z,96054.29
2022-08-26T10:52:03.108Z,96050.17
2022-08-26T10:54:58.823Z,96048.45
2022-08-26T10:57:50.064Z,96046.14
2022-08-26T11:01:02.503Z,96041.27
2022-08-26T11:04:05.582Z,96044.40
2022-08-26T11:06:37.097Z,96043.35
2022-08-26T11:09:09.940Z,96043.58
2022-08-26T11:11:50.165Z,96040.71
2022-08-26T11:14:29.190Z,96041.01
2022-08-26T11:17:00.519Z,96039.13
2022-08-26T11:19:59.384Z,96031.16
2022-08-26T11:22:45.454Z,96037.92
2022-08-26T11:25:20.627Z,96035.21
2022-08-26T11:27:50.000Z,96041.40
2022-08-26T11:30:20.010Z,96039.18
2022-08-26T11:32:55.514Z,96041.29
2022-08-26T11:35:24.928Z,96036.19
2022-08-26T11:38:23.234Z,96035.21
2022-08-26T11:41:09.281Z,96026.07
2022-08-26T11:43:41.077Z,96029.70
2022-08-26T11:46:13.063Z,96024.13
2022-08-26T11:48:46.279Z,96020.33
2022-08-26T11:51:25.463Z,96018.77
2022-08-26T11:54:14.636Z,96010.52
2022-08-26T11:56:49.171Z,96011.81
2022-08-26T12:02:17.731Z,96001.25
2022-08-26T12:04:49.868Z,95998.24
2022-08-26T12:07:26.302Z,95996.07
2022-08-26T12:10:02.448Z,95994.30
2022-08-26T12:12:36.261Z,95998.20
2022-08-26T12:15:20.725Z,95998.65
2022-08-26T12:17:54.515Z,95994.98
2022-08-26T12:20:47.217Z,95991.19
2022-08-26T12:23:47.817Z,95994.23
2022-08-26T12:26:23.323Z,95988.33
2022-08-26T12:28:54.998Z,95986.59
2022-08-26T12:31:32.735Z,95987.48
2022-08-26T12:34:17.692Z,95981.23
2022-08-26T12:36:55.192Z,95983.02
2022-08-26T12:39:42.788Z,95984.21
2022-08-26T12:42:16.215Z,95979.23
2022-08-26T12:44:53.725Z,95981.61
2022-08-26T12:47:42.810Z,95976.67
2022-08-26T12:50:22.372Z,95980.10
2022-08-26T12:53:25.235Z,95977.05
2022-08-26T12:55:57.623Z,95974.70
2022-08-26T12:58:32.059Z,95971.63
2022-08-26T13:01:07.722Z,95966.16
2022-08-26T13:03:45.306Z,95966.10
2022-08-26T13:06:24.067Z,95965.92
2022-08-26T13:09:25.116Z,95968.85
2022-08-26T13:11:53.920Z,95961.99
2022-08-26T13:14:25.242Z,95961.41
2022-08-26T13:16:54.369Z,95959.73
2022-08-26T13:19:27.005Z,95956.38
2022-08-26T13:21:59.009Z,95956.62
2022-08-26T13:24:38.896Z,95949.67
2022-08-26T13:27:11.943Z,95948.33
2022-08-26T13:29:41.842Z,95943.67
2022-08-26T13:32:11.301Z,95944.08
2022-08-26T13:34:40.881Z,95941.06
2022-08-26T13:37:10.814Z,95939.38
2022-08-26T13:39:42.295Z,95940.36
2022-08-26T13:42:10.903Z,95936.22
2022-08-26T13:44:44.720Z,95939.66
2022-08-26T13:47:14.546Z,95940.14
2022-08-26T13:49:44.668Z,95936.99
2022-08-26T13:52:13.987Z,95940.58
2022-08-26T13:54:43.907Z,95935.39
2022-08-26T13:57:14.370Z,95936.46
2022-08-26T13:59:43.826Z,95936.30
2022-08-26T14:02:13.609Z,95935.20
2022-08-26T14:04:43.610Z,95934.73
2022-08-26T14:07:14.742Z,95931.18
2022-08-26T14:09:45.068Z,95930.16
2022-08-26T14:12:14.935Z,95929.91
2022-08-26T14:14:45.483Z,95927.95
2022-08-26T14:17:23.591Z,95923.73
2022-08-26T14:19:54.194Z,95922.81
2022-08-26T14:22:24.448Z,95922.66
2022-08-26T14:24:53.075Z,95919.38
2022-08-26T14:27:23.003Z,95913.71
2022-08-26T14:29:52.837Z,95914.39
2022-08-26T14:32:27.053Z,95911.64
2022-08-26T14:34:58.396Z,95911.14
2022-08-26T14:37:28.618Z,95913.98
2022-08-26T14:39:58.128Z,95910.81
2022-08-26T14:42:31.402Z,95910.08
2022-08-26T14:45:03.424Z,95906.95
2022-08-26T14:47:33.693Z,95909.64
2022-08-26T14:50:04.868Z,95910.30
2022-08-26T14:52:54.511Z,95914.41
2022-08-26T14:55:23.991Z,95911.11
2022-08-26T14:57:54.473Z,95909.39
2022-08-26T15:00:24.313Z,95911.34
2022-08-26T15:02:52.973Z,95906.13
2022-08-26T15:05:23.420Z,95903.66
2022-08-26T15:07:52.899Z,95909.41
2022-08-26T15:10:23.515Z,95909.66
2022-08-26T15:12:53.765Z,95908.23
2022-08-26T15:15:23.651Z,95900.80
2022-08-26T15:17:54.106Z,95904.16
2022-08-26T15:20:24.444Z,95903.58
2022-08-26T15:22:53.920Z,95903.40
2022-08-26T15:25:24.753Z,95904.14
2022-08-26T15:27:54.959Z,95902.27
2022-08-26T15:30:24.351Z,95903.09
2022-08-26T15:32:53.717Z,95904.77
2022-08-26T15:35:25.729Z,95902.52
2022-08-26T15:37:56.928Z,95900.06
2022-08-26T15:40:27.226Z,95899.05
2022-08-26T15:43:11.411Z,95901.36
2022-08-26T15:45:46.616Z,95899.36
2022-08-26T15:48:16.347Z,95898.01
2022-08-26T15:50:56.642Z,95895.31
2022-08-26T15:53:30.628Z,95890.65
2022-08-26T15:56:00.993Z,95892.67
2022-08-26T15:58:33.442Z,95891.31
2022-08-26T16:01:07.218Z,95890.52
2022-08-26T16:03:37.051Z,95887.91
2022-08-26T16:06:07.572Z,95886.71
2022-08-26T16:08:37.382Z,95891.94
2022-08-26T16:11:07.727Z,95890.98
2022-08-26T16:13:39.930Z,95891.14
2022-08-26T16:16:11.226Z,95887.08
2022-08-26T16:18:42.000Z,95887.91
2022-08-26T16:21:23.743Z,95889.17
2022-08-26T16:23:53.833Z,95890.73
2022-08-26T16:26:26.449Z,95891.91
2022-08-26T16:28:55.470Z,95890.95
2022-08-26T16:31:25.419Z,95892.66
2022-08-26T16:33:55.699Z,95893.02
2022-08-26T16:36:25.836Z,95896.79
2022-08-26T16:38:56.784Z,95896.33
2022-08-26T16:41:29.174Z,95896.80
2022-08-26T16:44:00.118Z,95901.12
2022-08-26T16:46:30.461Z,95901.41
2022-08-26T16:49:01.861Z,95898.27
2022-08-26T16:51:32.865Z,95897.38
2022-08-26T16:54:09.348Z,95903.54
2022-08-26T16:56:38.648Z,95903.61
2022-08-26T16:59:11.871Z,95902.23
2022-08-26T17:01:42.065Z,95902.36
2022-08-26T17:04:12.211Z,95908.27
2022-08-26T17:06:41.674Z,95908.52
2022-08-26T17:09:11.381Z,95910.96
2022-08-26T17:11:40.745Z,95915.11
2022-08-26T17:14:11.907Z,95916.34
2022-08-26T17:16:41.234Z,95916.48
2022-08-26T17:19:11.563Z,95915.80
2022-08-26T17:21:41.629Z,95919.45
2022-08-26T17:24:11.504Z,95920.33
2022-08-26T17:26:48.340Z,95923.87
2022-08-26T17:29:21.505Z,95922.66
2022-08-26T17:31:51.209Z,95920.41
2022-08-26T17:34:22.573Z,95922.67
2022-08-26T17:36:52.903Z,95924.13
2022-08-26T17:39:23.023Z,95923.46
2022-08-26T17:41:52.036Z,95926.36
2022-08-26T17:44:21.832Z,95927.67
2022-08-26T17:46:51.979Z,95932.27
2022-08-26T17:49:22.168Z,95934.48
2022-08-26T17:51:51.946Z,95934.80
2022-08-26T17:54:21.650Z,95940.94
2022-08-26T17:56:53.981Z,95937.08
2022-08-26T17:59:24.407Z,95941.95
2022-08-26T18:02:00.231Z,95937.84
2022-08-26T18:04:29.401Z,95939.27
2022-08-26T18:06:58.768Z,95935.48
2022-08-26T18:09:32.730Z,95941.37
2022-08-26T18:12:01.944Z,95937.30
2022-08-26T18:14:33.904Z,95942.48
2022-08-26T18:17:03.930Z,95940.31
2022-08-26T18:19:33.760Z,95943.07
2022-08-26T18:22:03.714Z,95943.45
2022-08-26T18:24:33.585Z,95942.09
2022-08-26T18:27:03.732Z,95945.75
2022-08-26T18:29:33.846Z,95943.70
2022-08-26T18:32:03.712Z,95948.52
2022-08-26T18:34:32.424Z,95946.34
2022-08-26T18:37:02.239Z,95949.08
2022-08-26T18:39:31.126Z,95946.56
2022-08-26T18:42:00.442Z,95943.65
2022-08-26T18:44:30.355Z,95947.23
2022-08-26T18:47:00.153Z,95945.74
2022-08-26T18:49:32.070Z,95948.50
2022-08-26T18:52:01.429Z,95949.79
2022-08-26T18:54:31.529Z,95950.95
2022-08-26T18:57:03.154Z,95952.23
2022-08-26T18:59:33.034Z,95954.89
2022-08-26T19:02:03.023Z,95954.67
2022-08-26T19:04:32.464Z,95956.01
2022-08-26T19:07:01.818Z,95957.38
2022-08-26T19:09:32.860Z,95956.26
2022-08-26T19:12:05.239Z,95957.80
2022-08-26T19:14:36.278Z,95959.89
2022-08-26T19:17:06.367Z,95958.43
2022-08-26T19:19:38.683Z,95957.56
2022-08-26T19:22:08.796Z,95957.08
2022-08-26T19:24:38.630Z,95964.29
2022-08-26T19:27:09.715Z,95967.52
2022-08-26T19:29:41.455Z,95967.95
2022-08-26T19:32:11.778Z,95966.06
2022-08-26T19:34:41.778Z,95962.46
2022-08-26T19:37:11.384Z,95963.01
2022-08-26T19:39:39.933Z,95962.02
2022-08-26T19:42:11.629Z,95964.70
2022-08-26T19:45:00.911Z,95960.83
2022-08-26T19:47:31.719Z,95965.41
2022-08-26T19:50:01.718Z,95973.44
2022-08-26T19:52:32.531Z,95972.47
2022-08-26T19:55:03.451Z,95972.07
2022-08-26T19:57:34.563Z,95972.92
2022-08-26T20:00:14.979Z,95976.45
2022-08-26T20:02:44.843Z,95973.02
2022-08-26T20:05:15.835Z,95976.59
2022-08-26T20:07:45.627Z,95979.88
2022-08-26T20:10:17.926Z,95978.05
2022-08-26T20:12:49.368Z,95974.08
2022-08-26T20:15:24.472Z,95972.45
2022-08-26T20:17:58.978Z,95973.18
2022-08-26T20:20:48.478Z,95975.45
2022-08-26T20:23:18.571Z,95976.19
2022-08-26T20:25:48.379Z,95975.73
2022-08-26T20:28:19.590Z,95979.13
2022-08-26T20:30:49.482Z,95980.77
2022-08-26T20:33:20.034Z,95979.38
2022-08-26T20:35:49.910Z,95979.67
2022-08-26T20:38:21.733Z,95979.89
2022-08-26T20:40:51.631Z,95978.98
2022-08-26T20:43:26.624Z,95983.16
2022-08-26T20:45:56.419Z,95980.02
2022-08-26T20:48:26.793Z,95987.89
2022-08-26T20:51:06.365Z,95989.92
2022-08-26T20:53:36.611Z,95992.59
2022-08-26T20:56:08.989Z,96002.87
2022-08-26T20:58:39.497Z,95999.11
2022-08-26T21:01:18.145Z,95998.24
2022-08-26T21:03:47.153Z,95996.27
2022-08-26T21:06:18.733Z,95999.38
2022-08-26T21:08:50.983Z,95997.54
2022-08-26T21:11:20.758Z,95999.81
2022-08-26T21:14:04.427Z,96006.52
2022-08-26T21:16:39.528Z,96003.63
2022-08-26T21:19:12.310Z,96001.83
2022-08-26T21:21:42.900Z,96004.30
2022-08-26T21:24:13.732Z,96004.59
2022-08-26T21:26:43.000Z,96006.98
2022-08-26T21:29:14.058Z,96004.75
2022-08-26T21:31:46.549Z,96003.05
2022-08-26T21:34:19.191Z,96002.36
2022-08-26T21:36:49.543Z,96007.83
2022-08-26T21:39:19.600Z,96006.95
2022-08-26T21:41:49.395Z,96010.55
2022-08-26T21:44:19.300Z,96017.63
2022-08-26T21:46:50.287Z,96012.11
2022-08-26T21:49:20.266Z,96011.70
2022-08-26T21:51:50.400Z,96010.02
2022-08-26T21:54:20.200Z,96015.88
2022-08-26T21:56:49.694Z,96016.38
2022-08-26T21:59:20.186Z,96014.69
2022-08-26T22:01:51.015Z,96019.30
2022-08-26T22:04:22.066Z,96018.83
2022-08-26T22:06:55.101Z,96016.02
2022-08-26T22:09:27.591Z,96019.95
2022-08-26T22:11:59.006Z,96020.21
2022-08-26T22:14:30.907Z,96014.08
2022-08-26T22:17:01.066Z,96017.25
2022-08-26T22:19:32.249Z,96015.05
2022-08-26T22:22:04.842Z,96017.09
2022-08-26T22:24:35.060Z,96011.39
2022-08-26T22:27:07.759Z,96007.02
2022-08-26T22:29:38.311Z,96008.58
2022-08-26T22:32:08.398Z,96005.69
2022-08-26T22:34:37.742Z,96007.32
2022-08-26T22:37:08.155Z,96008.99
2022-08-26T22:39:38.342Z,96008.05
2022-08-26T22:42:10.507Z,96007.66
2022-08-26T22:44:41.632Z,96008.23
2022-08-26T22:47:11.460Z,96009.49
2022-08-26T22:49:41.452Z,96007.05
2022-08-26T22:52:11.549Z,96007.67
2022-08-26T22:54:40.268Z,96006.50
2022-08-26T22:57:10.163Z,96007.03
2022-08-26T22:59:41.021Z,96007.34
2022-08-26T23:02:12.893Z,96005.25
2022-08-26T23:04:42.499Z,96007.00
2022-08-26T23:07:12.566Z,96004.84
2022-08-26T23:09:42.677Z,96008.98
2022-08-26T23:12:14.413Z,96008.77
2022-08-26T23:14:44.584Z,96005.78
2022-08-26T23:17:14.636Z,96007.86
2022-08-26T23:19:44.848Z,96005.91
2022-08-26T23:22:13.478Z,96006.55
2022-08-26T23:24:43.503Z,96008.11
2022-08-26T23:27:13.416Z,96003.66
2022-08-26T23:29:43.578Z,96007.23
2022-08-26T23:32:13.840Z,96007.92
2022-08-26T23:34:59.949Z,96007.70
2022-08-26T23:37:33.968Z,96007.72
2022-08-26T23:40:15.886Z,96008.48
2022-08-26T23:42:46.384Z,96005.63
2022-08-26T23:45:18.770Z,96005.02
2022-08-26T23:47:51.045Z,95998.83
2022-08-26T23:50:50.431Z,96000.45
2022-08-26T23:53:23.179Z,96003.86
2022-08-26T23:55:54.324Z,96003.15
2022-08-26T23:58:24.395Z,96000.21
